sensor_id;sensor_type;location;lat;lon;timestamp;temperature;humidity
34768;DHT22;21755;43.608;1.236;2024-01-15T00:00:44;9.00;99.90
34768;DHT22;21755;43.608;1.236;2024-01-15T00:03:10;9.00;99.90
34768;DHT22;21755;43.608;1.236;2024-01-15T00:05:36;9.10;99.90
34768;DHT22;21755;43.608;1.236;2024-01-15T00:08:02;9.00;99.90
34768;DHT22;21755;43.608;1.236;2024-01-15T00:10:28;9.00;99.90
34768;DHT22;21755;43.608;1.236;2024-01-15T00:12:54;9.00;99.90
34768;DHT22;21755;43.608;1.236;2024-01-15T00:15:19;9.00;99.90
34768;DHT22;21755;43.608;1.236;2024-01-15T00:17:46;9.00;99.90
34768;DHT22;21755;43.608;1.236;2024-01-15T00:20:12;9.00;99.90
34768;DHT22;21755;43.608;1.236;2024-01-15T00:22:37;9.00;99.90
34768;DHT22;21755;43.608;1.236;2024-01-15T00:25:03;9.00;99.90
34768;DHT22;21755;43.608;1.236;2024-01-15T00:27:29;9.00;99.90
34768;DHT22;21755;43.608;1.236;2024-01-15T00:29:55;9.00;99.90
34768;DHT22;21755;43.608;1.236;2024-01-15T00:32:21;9.10;99.90
34768;DHT22;21755;43.608;1.236;2024-01-15T00:34:47;9.00;99.90
34768;DHT22;21755;43.608;1.236;2024-01-15T00:37:13;9.00;99.90
34768;DHT22;21755;43.608;1.236;2024-01-15T00:39:39;9.00;99.90
34768;DHT22;21755;43.608;1.236;2024-01-15T00:42:05;9.10;99.90
34768;DHT22;21755;43.608;1.236;2024-01-15T00:44:31;9.00;99.90
34768;DHT22;21755;43.608;1.236;2024-01-15T00:46:57;9.00;99.90
34768;DHT22;21755;43.608;1.236;2024-01-15T00:49:23;9.00;99.90
34768;DHT22;21755;43.608;1.236;2024-01-15T00:51:48;9.00;99.90
34768;DHT22;21755;43.608;1.236;2024-01-15T00:54:14;9.00;99.90
34768;DHT22;21755;43.608;1.236;2024-01-15T00:56:40;9.00;99.90
34768;DHT22;21755;43.608;1.236;2024-01-15T00:59:06;9.00;99.90
34768;DHT22;21755;43.608;1.236;2024-01-15T01:01:33;9.00;99.90
34768;DHT22;21755;43.608;1.236;2024-01-15T01:03:59;9.00;99.90
34768;DHT22;21755;43.608;1.236;2024-01-15T01:06:25;9.00;99.90
34768;DHT22;21755;43.608;1.236;2024-01-15T01:08:51;9.00;99.90
34768;DHT22;21755;43.608;1.236;2024-01-15T01:11:16;9.00;99.90
34768;DHT22;21755;43.608;1.236;2024-01-15T01:13:43;9.00;99.90
34768;DHT22;21755;43.608;1.236;2024-01-15T01:16:09;9.00;99.90
34768;DHT22;21755;43.608;1.236;2024-01-15T01:18:35;9.00;99.90
34768;DHT22;21755;43.608;1.236;2024-01-15T01:21:00;9.00;99.90
34768;DHT22;21755;43.608;1.236;2024-01-15T01:23:26;9.00;99.90
34768;DHT22;21755;43.608;1.236;2024-01-15T01:25:52;9.00;99.90
34768;DHT22;21755;43.608;1.236;2024-01-15T01:28:18;9.00;99.90
34768;DHT22;21755;43.608;1.236;2024-01-15T01:30:44;9.00;99.90
34768;DHT22;21755;43.608;1.236;2024-01-15T01:33:10;9.00;99.90
34768;DHT22;21755;43.608;1.236;2024-01-15T01:35:36;9.00;99.90
34768;DHT22;21755;43.608;1.236;2024-01-15T01:38:02;9.00;99.90
34768;DHT22;21755;43.608;1.236;2024-01-15T01:40:28;9.00;99.90
34768;DHT22;21755;43.608;1.236;2024-01-15T01:42:54;9.00;99.90
34768;DHT22;21755;43.608;1.236;2024-01-15T01:45:19;9.00;99.90
34768;DHT22;21755;43.608;1.236;2024-01-15T01:47:45;9.00;99.90
34768;DHT22;21755;43.608;1.236;2024-01-15T01:50:12;9.00;99.90
34768;DHT22;21755;43.608;1.236;2024-01-15T01:52:39;9.00;99.90
34768;DHT22;21755;43.608;1.236;2024-01-15T01:55:06;9.00;99.90
34768;DHT22;21755;43.608;1.236;2024-01-15T01:57:33;9.00;99.90
34768;DHT22;21755;43.608;1.236;2024-01-15T02:00:02;9.00;99.90
34768;DHT22;21755;43.608;1.236;2024-01-15T02:02:30;9.00;99.90
34768;DHT22;21755;43.608;1.236;2024-01-15T02:04:57;9.00;99.90
34768;DHT22;21755;43.608;1.236;2024-01-15T02:07:23;9.00;99.90
34768;DHT22;21755;43.608;1.236;2024-01-15T02:09:49;9.00;99.90
34768;DHT22;21755;43.608;1.236;2024-01-15T02:12:15;9.00;99.90
34768;DHT22;21755;43.608;1.236;2024-01-15T02:14:41;9.00;99.90
34768;DHT22;21755;43.608;1.236;2024-01-15T02:17:07;9.00;99.90
34768;DHT22;21755;43.608;1.236;2024-01-15T02:19:33;9.00;99.90
34768;DHT22;21755;43.608;1.236;2024-01-15T02:21:59;9.00;99.90
34768;DHT22;21755;43.608;1.236;2024-01-15T02:24:25;9.00;99.90
34768;DHT22;21755;43.608;1.236;2024-01-15T02:26:51;9.00;99.90
34768;DHT22;21755;43.608;1.236;2024-01-15T02:29:17;9.00;99.90
34768;DHT22;21755;43.608;1.236;2024-01-15T02:31:43;9.00;99.90
34768;DHT22;21755;43.608;1.236;2024-01-15T02:34:09;9.00;99.90
34768;DHT22;21755;43.608;1.236;2024-01-15T02:36:35;9.00;99.90
34768;DHT22;21755;43.608;1.236;2024-01-15T02:39:01;9.00;99.90
34768;DHT22;21755;43.608;1.236;2024-01-15T02:41:27;9.00;99.90
34768;DHT22;21755;43.608;1.236;2024-01-15T02:43:53;9.00;99.90
34768;DHT22;21755;43.608;1.236;2024-01-15T02:46:18;9.00;99.90
34768;DHT22;21755;43.608;1.236;2024-01-15T02:48:44;9.00;99.90
34768;DHT22;21755;43.608;1.236;2024-01-15T02:51:10;9.00;99.90
34768;DHT22;21755;43.608;1.236;2024-01-15T02:53:37;9.00;99.90
34768;DHT22;21755;43.608;1.236;2024-01-15T02:56:03;9.00;99.90
34768;DHT22;21755;43.608;1.236;2024-01-15T02:58:29;9.00;99.90
34768;DHT22;21755;43.608;1.236;2024-01-15T03:00:55;9.00;99.90
34768;DHT22;21755;43.608;1.236;2024-01-15T03:03:21;9.00;99.90
34768;DHT22;21755;43.608;1.236;2024-01-15T03:05:46;9.00;99.90
34768;DHT22;21755;43.608;1.236;2024-01-15T03:08:12;9.00;99.90
34768;DHT22;21755;43.608;1.236;2024-01-15T03:10:38;9.00;99.90
34768;DHT22;21755;43.608;1.236;2024-01-15T03:13:04;9.00;99.90
34768;DHT22;21755;43.608;1.236;2024-01-15T03:15:30;9.00;99.90
34768;DHT22;21755;43.608;1.236;2024-01-15T03:17:56;9.00;99.90
34768;DHT22;21755;43.608;1.236;2024-01-15T03:20:22;9.00;99.90
34768;DHT22;21755;43.608;1.236;2024-01-15T03:22:48;9.00;99.90
34768;DHT22;21755;43.608;1.236;2024-01-15T03:25:14;9.00;99.90
34768;DHT22;21755;43.608;1.236;2024-01-15T03:27:40;9.00;99.90
34768;DHT22;21755;43.608;1.236;2024-01-15T03:30:06;9.00;99.90
34768;DHT22;21755;43.608;1.236;2024-01-15T03:32:32;9.10;99.90
34768;DHT22;21755;43.608;1.236;2024-01-15T03:34:58;9.00;99.90
34768;DHT22;21755;43.608;1.236;2024-01-15T03:37:24;9.10;99.90
34768;DHT22;21755;43.608;1.236;2024-01-15T03:39:50;9.10;99.90
34768;DHT22;21755;43.608;1.236;2024-01-15T03:42:16;9.10;99.90
34768;DHT22;21755;43.608;1.236;2024-01-15T03:44:42;9.10;99.90
34768;DHT22;21755;43.608;1.236;2024-01-15T03:47:07;9.10;99.90
34768;DHT22;21755;43.608;1.236;2024-01-15T03:49:33;9.10;99.90
34768;DHT22;21755;43.608;1.236;2024-01-15T03:51:59;9.10;99.90
34768;DHT22;21755;43.608;1.236;2024-01-15T03:54:25;9.10;99.90
34768;DHT22;21755;43.608;1.236;2024-01-15T03:56:52;9.10;99.90
34768;DHT22;21755;43.608;1.236;2024-01-15T03:59:18;9.10;99.90
34768;DHT22;21755;43.608;1.236;2024-01-15T04:01:50;9.10;99.90
34768;DHT22;21755;43.608;1.236;2024-01-15T04:04:17;9.10;99.90
34768;DHT22;21755;43.608;1.236;2024-01-15T04:06:43;9.10;99.90
34768;DHT22;21755;43.608;1.236;2024-01-15T04:09:08;9.10;99.90
34768;DHT22;21755;43.608;1.236;2024-01-15T04:11:34;9.10;99.90
34768;DHT22;21755;43.608;1.236;2024-01-15T04:14:00;9.10;99.90
34768;DHT22;21755;43.608;1.236;2024-01-15T04:16:26;9.10;99.90
34768;DHT22;21755;43.608;1.236;2024-01-15T04:18:52;9.10;99.90
34768;DHT22;21755;43.608;1.236;2024-01-15T04:21:18;9.10;99.90
34768;DHT22;21755;43.608;1.236;2024-01-15T04:23:44;9.10;99.90
34768;DHT22;21755;43.608;1.236;2024-01-15T04:26:10;9.10;99.90
34768;DHT22;21755;43.608;1.236;2024-01-15T04:28:36;9.10;99.90
34768;DHT22;21755;43.608;1.236;2024-01-15T04:31:01;9.10;99.90
34768;DHT22;21755;43.608;1.236;2024-01-15T04:33:27;9.10;99.90
34768;DHT22;21755;43.608;1.236;2024-01-15T04:35:53;9.10;99.90
34768;DHT22;21755;43.608;1.236;2024-01-15T04:38:19;9.10;99.90
34768;DHT22;21755;43.608;1.236;2024-01-15T04:40:45;9.10;99.90
34768;DHT22;21755;43.608;1.236;2024-01-15T04:43:11;9.10;99.90
34768;DHT22;21755;43.608;1.236;2024-01-15T04:45:37;9.10;99.90
34768;DHT22;21755;43.608;1.236;2024-01-15T04:48:03;9.10;99.90
34768;DHT22;21755;43.608;1.236;2024-01-15T04:50:29;9.10;99.90
34768;DHT22;21755;43.608;1.236;2024-01-15T04:52:55;9.10;99.90
34768;DHT22;21755;43.608;1.236;2024-01-15T04:55:20;9.10;99.90
34768;DHT22;21755;43.608;1.236;2024-01-15T04:57:46;9.10;99.90
34768;DHT22;21755;43.608;1.236;2024-01-15T05:00:12;9.10;99.90
34768;DHT22;21755;43.608;1.236;2024-01-15T05:02:39;9.10;99.90
34768;DHT22;21755;43.608;1.236;2024-01-15T05:05:05;9.10;99.90
34768;DHT22;21755;43.608;1.236;2024-01-15T05:07:31;9.10;99.90
34768;DHT22;21755;43.608;1.236;2024-01-15T05:09:57;9.10;99.90
34768;DHT22;21755;43.608;1.236;2024-01-15T05:12:23;9.10;99.90
34768;DHT22;21755;43.608;1.236;2024-01-15T05:14:49;9.10;99.90
34768;DHT22;21755;43.608;1.236;2024-01-15T05:17:15;9.10;99.90
34768;DHT22;21755;43.608;1.236;2024-01-15T05:19:41;9.10;99.90
34768;DHT22;21755;43.608;1.236;2024-01-15T05:22:07;9.10;99.90
34768;DHT22;21755;43.608;1.236;2024-01-15T05:24:33;9.10;99.90
34768;DHT22;21755;43.608;1.236;2024-01-15T05:26:59;9.10;99.90
34768;DHT22;21755;43.608;1.236;2024-01-15T05:29:25;9.10;99.90
34768;DHT22;21755;43.608;1.236;2024-01-15T05:31:50;9.10;99.90
34768;DHT22;21755;43.608;1.236;2024-01-15T05:34:16;9.10;99.90
34768;DHT22;21755;43.608;1.236;2024-01-15T05:36:42;9.10;99.90
34768;DHT22;21755;43.608;1.236;2024-01-15T05:39:08;9.10;99.90
34768;DHT22;21755;43.608;1.236;2024-01-15T05:41:34;9.10;99.90
34768;DHT22;21755;43.608;1.236;2024-01-15T05:44:00;9.10;99.90
34768;DHT22;21755;43.608;1.236;2024-01-15T05:46:26;9.10;99.90
34768;DHT22;21755;43.608;1.236;2024-01-15T05:48:52;9.10;99.90
34768;DHT22;21755;43.608;1.236;2024-01-15T05:51:18;9.10;99.90
34768;DHT22;21755;43.608;1.236;2024-01-15T05:53:44;9.10;99.90
34768;DHT22;21755;43.608;1.236;2024-01-15T05:56:10;9.10;99.90
34768;DHT22;21755;43.608;1.236;2024-01-15T05:58:37;9.10;99.90
34768;DHT22;21755;43.608;1.236;2024-01-15T06:01:03;9.10;99.90
34768;DHT22;21755;43.608;1.236;2024-01-15T06:03:28;9.10;99.90
34768;DHT22;21755;43.608;1.236;2024-01-15T06:05:54;9.10;99.90
34768;DHT22;21755;43.608;1.236;2024-01-15T06:08:20;9.10;99.90
34768;DHT22;21755;43.608;1.236;2024-01-15T06:10:46;9.10;99.90
34768;DHT22;21755;43.608;1.236;2024-01-15T06:13:12;9.10;99.90
34768;DHT22;21755;43.608;1.236;2024-01-15T06:15:39;9.10;99.90
34768;DHT22;21755;43.608;1.236;2024-01-15T06:18:05;9.10;99.90
34768;DHT22;21755;43.608;1.236;2024-01-15T06:20:31;9.10;99.90
34768;DHT22;21755;43.608;1.236;2024-01-15T06:22:57;9.10;99.90
34768;DHT22;21755;43.608;1.236;2024-01-15T06:25:23;9.10;99.90
34768;DHT22;21755;43.608;1.236;2024-01-15T06:27:48;9.10;99.90
34768;DHT22;21755;43.608;1.236;2024-01-15T06:30:15;9.10;99.90
34768;DHT22;21755;43.608;1.236;2024-01-15T06:32:40;9.10;99.90
34768;DHT22;21755;43.608;1.236;2024-01-15T06:35:07;9.10;99.90
34768;DHT22;21755;43.608;1.236;2024-01-15T06:37:33;9.10;99.90
34768;DHT22;21755;43.608;1.236;2024-01-15T06:39:58;9.10;99.90
34768;DHT22;21755;43.608;1.236;2024-01-15T06:42:25;9.10;99.90
34768;DHT22;21755;43.608;1.236;2024-01-15T06:44:51;9.10;99.90
34768;DHT22;21755;43.608;1.236;2024-01-15T06:47:16;9.10;99.90
34768;DHT22;21755;43.608;1.236;2024-01-15T06:49:43;9.10;99.90
34768;DHT22;21755;43.608;1.236;2024-01-15T06:52:09;9.10;99.90
34768;DHT22;21755;43.608;1.236;2024-01-15T06:54:35;9.10;99.90
34768;DHT22;21755;43.608;1.236;2024-01-15T06:57:01;9.10;99.90
34768;DHT22;21755;43.608;1.236;2024-01-15T06:59:27;9.10;99.90
34768;DHT22;21755;43.608;1.236;2024-01-15T07:01:52;9.10;99.90
34768;DHT22;21755;43.608;1.236;2024-01-15T07:04:18;9.10;99.90
34768;DHT22;21755;43.608;1.236;2024-01-15T07:06:44;9.20;99.90
34768;DHT22;21755;43.608;1.236;2024-01-15T07:09:10;9.20;99.90
34768;DHT22;21755;43.608;1.236;2024-01-15T07:11:36;9.10;99.90
34768;DHT22;21755;43.608;1.236;2024-01-15T07:14:02;9.10;99.90
34768;DHT22;21755;43.608;1.236;2024-01-15T07:16:28;9.10;99.90
34768;DHT22;21755;43.608;1.236;2024-01-15T07:18:54;9.20;99.90
34768;DHT22;21755;43.608;1.236;2024-01-15T07:21:20;9.10;99.90
34768;DHT22;21755;43.608;1.236;2024-01-15T07:23:46;9.20;99.90
34768;DHT22;21755;43.608;1.236;2024-01-15T07:26:12;9.20;99.90
34768;DHT22;21755;43.608;1.236;2024-01-15T07:28:38;9.20;99.90
34768;DHT22;21755;43.608;1.236;2024-01-15T07:31:04;9.20;99.90
34768;DHT22;21755;43.608;1.236;2024-01-15T07:33:32;9.20;99.90
34768;DHT22;21755;43.608;1.236;2024-01-15T07:35:57;9.20;99.90
34768;DHT22;21755;43.608;1.236;2024-01-15T07:38:23;9.20;99.90
34768;DHT22;21755;43.608;1.236;2024-01-15T07:40:49;9.20;99.90
34768;DHT22;21755;43.608;1.236;2024-01-15T07:43:15;9.20;99.90
34768;DHT22;21755;43.608;1.236;2024-01-15T07:45:41;9.20;99.90
34768;DHT22;21755;43.608;1.236;2024-01-15T07:48:07;9.20;99.90
34768;DHT22;21755;43.608;1.236;2024-01-15T07:50:33;9.20;99.90
34768;DHT22;21755;43.608;1.236;2024-01-15T07:52:59;9.20;99.90
34768;DHT22;21755;43.608;1.236;2024-01-15T07:55:25;9.20;99.90
34768;DHT22;21755;43.608;1.236;2024-01-15T07:57:51;9.20;99.90
34768;DHT22;21755;43.608;1.236;2024-01-15T08:00:18;9.20;99.90
34768;DHT22;21755;43.608;1.236;2024-01-15T08:02:44;9.20;99.90
34768;DHT22;21755;43.608;1.236;2024-01-15T08:05:10;9.20;99.90
34768;DHT22;21755;43.608;1.236;2024-01-15T08:07:36;9.20;99.90
34768;DHT22;21755;43.608;1.236;2024-01-15T08:10:01;9.20;99.90
34768;DHT22;21755;43.608;1.236;2024-01-15T08:12:45;9.20;99.90
34768;DHT22;21755;43.608;1.236;2024-01-15T08:15:18;9.20;99.90
34768;DHT22;21755;43.608;1.236;2024-01-15T08:17:45;9.20;99.90
34768;DHT22;21755;43.608;1.236;2024-01-15T08:20:11;9.20;99.90
34768;DHT22;21755;43.608;1.236;2024-01-15T08:22:38;9.30;99.90
34768;DHT22;21755;43.608;1.236;2024-01-15T08:25:05;9.30;99.90
34768;DHT22;21755;43.608;1.236;2024-01-15T08:27:31;9.30;99.90
34768;DHT22;21755;43.608;1.236;2024-01-15T08:29:57;9.30;99.90
34768;DHT22;21755;43.608;1.236;2024-01-15T08:32:22;9.30;99.90
34768;DHT22;21755;43.608;1.236;2024-01-15T08:34:48;9.30;99.90
34768;DHT22;21755;43.608;1.236;2024-01-15T08:37:18;9.40;99.90
34768;DHT22;21755;43.608;1.236;2024-01-15T08:39:44;9.40;99.90
34768;DHT22;21755;43.608;1.236;2024-01-15T08:42:10;9.40;99.90
34768;DHT22;21755;43.608;1.236;2024-01-15T08:44:36;9.40;99.90
34768;DHT22;21755;43.608;1.236;2024-01-15T08:47:04;9.40;99.90
34768;DHT22;21755;43.608;1.236;2024-01-15T08:49:30;9.40;99.90
34768;DHT22;21755;43.608;1.236;2024-01-15T08:51:56;9.50;99.90
34768;DHT22;21755;43.608;1.236;2024-01-15T08:54:22;9.50;99.90
34768;DHT22;21755;43.608;1.236;2024-01-15T08:56:48;9.60;99.90
34768;DHT22;21755;43.608;1.236;2024-01-15T08:59:14;9.60;99.90
34768;DHT22;21755;43.608;1.236;2024-01-15T09:01:40;9.60;99.90
34768;DHT22;21755;43.608;1.236;2024-01-15T09:04:06;9.70;99.90
34768;DHT22;21755;43.608;1.236;2024-01-15T09:06:31;9.80;99.90
34768;DHT22;21755;43.608;1.236;2024-01-15T09:08:58;9.90;99.90
34768;DHT22;21755;43.608;1.236;2024-01-15T09:11:24;9.90;99.90
34768;DHT22;21755;43.608;1.236;2024-01-15T09:13:50;9.90;99.90
34768;DHT22;21755;43.608;1.236;2024-01-15T09:16:17;9.90;99.90
34768;DHT22;21755;43.608;1.236;2024-01-15T09:18:43;9.80;99.90
34768;DHT22;21755;43.608;1.236;2024-01-15T09:21:09;9.90;99.90
34768;DHT22;21755;43.608;1.236;2024-01-15T09:23:35;9.90;99.90
34768;DHT22;21755;43.608;1.236;2024-01-15T09:26:01;9.90;99.90
34768;DHT22;21755;43.608;1.236;2024-01-15T09:28:27;9.90;99.90
34768;DHT22;21755;43.608;1.236;2024-01-15T09:30:53;9.90;99.90
34768;DHT22;21755;43.608;1.236;2024-01-15T09:33:19;10.00;99.90
34768;DHT22;21755;43.608;1.236;2024-01-15T09:35:45;10.00;99.90
34768;DHT22;21755;43.608;1.236;2024-01-15T09:38:11;10.00;99.90
34768;DHT22;21755;43.608;1.236;2024-01-15T09:40:38;10.10;99.90
34768;DHT22;21755;43.608;1.236;2024-01-15T09:43:08;10.10;99.90
34768;DHT22;21755;43.608;1.236;2024-01-15T09:45:35;10.20;99.90
34768;DHT22;21755;43.608;1.236;2024-01-15T09:48:01;10.30;99.90
34768;DHT22;21755;43.608;1.236;2024-01-15T09:50:27;10.40;99.90
34768;DHT22;21755;43.608;1.236;2024-01-15T09:52:54;10.50;99.90
34768;DHT22;21755;43.608;1.236;2024-01-15T09:55:32;10.40;99.90
34768;DHT22;21755;43.608;1.236;2024-01-15T09:58:00;10.40;99.90
34768;DHT22;21755;43.608;1.236;2024-01-15T10:00:28;10.40;99.90
34768;DHT22;21755;43.608;1.236;2024-01-15T10:02:56;10.50;99.90
34768;DHT22;21755;43.608;1.236;2024-01-15T10:05:22;10.60;99.90
34768;DHT22;21755;43.608;1.236;2024-01-15T10:07:49;10.60;99.90
34768;DHT22;21755;43.608;1.236;2024-01-15T10:10:16;10.60;99.90
34768;DHT22;21755;43.608;1.236;2024-01-15T10:12:42;10.60;99.90
34768;DHT22;21755;43.608;1.236;2024-01-15T10:15:12;10.70;99.90
34768;DHT22;21755;43.608;1.236;2024-01-15T10:17:39;10.60;99.90
34768;DHT22;21755;43.608;1.236;2024-01-15T10:20:13;10.60;99.90
34768;DHT22;21755;43.608;1.236;2024-01-15T10:22:43;10.60;99.90
34768;DHT22;21755;43.608;1.236;2024-01-15T10:25:13;10.60;99.90
34768;DHT22;21755;43.608;1.236;2024-01-15T10:27:40;10.60;99.90
34768;DHT22;21755;43.608;1.236;2024-01-15T10:30:10;10.60;99.90
34768;DHT22;21755;43.608;1.236;2024-01-15T10:32:37;10.50;99.90
34768;DHT22;21755;43.608;1.236;2024-01-15T10:35:04;10.50;99.90
34768;DHT22;21755;43.608;1.236;2024-01-15T10:37:33;10.50;99.90
34768;DHT22;21755;43.608;1.236;2024-01-15T10:40:02;10.50;99.90
34768;DHT22;21755;43.608;1.236;2024-01-15T10:42:30;10.50;99.90
34768;DHT22;21755;43.608;1.236;2024-01-15T10:44:56;10.50;99.90
34768;DHT22;21755;43.608;1.236;2024-01-15T10:47:23;10.60;99.90
34768;DHT22;21755;43.608;1.236;2024-01-15T10:49:49;10.70;99.90
34768;DHT22;21755;43.608;1.236;2024-01-15T10:52:16;10.80;99.90
34768;DHT22;21755;43.608;1.236;2024-01-15T10:54:41;10.80;99.90
34768;DHT22;21755;43.608;1.236;2024-01-15T10:57:09;10.90;99.90
34768;DHT22;21755;43.608;1.236;2024-01-15T10:59:36;10.90;99.90
34768;DHT22;21755;43.608;1.236;2024-01-15T11:02:02;10.90;99.90
34768;DHT22;21755;43.608;1.236;2024-01-15T11:04:28;10.90;99.90
34768;DHT22;21755;43.608;1.236;2024-01-15T11:06:57;10.90;99.90
34768;DHT22;21755;43.608;1.236;2024-01-15T11:09:23;10.90;99.90
34768;DHT22;21755;43.608;1.236;2024-01-15T11:11:53;10.90;99.90
34768;DHT22;21755;43.608;1.236;2024-01-15T11:14:39;10.90;99.90
34768;DHT22;21755;43.608;1.236;2024-01-15T11:17:06;11.00;99.90
34768;DHT22;21755;43.608;1.236;2024-01-15T11:19:48;11.10;99.90
34768;DHT22;21755;43.608;1.236;2024-01-15T11:24:55;11.20;99.90
34768;DHT22;21755;43.608;1.236;2024-01-15T11:27:44;11.20;99.90
34768;DHT22;21755;43.608;1.236;2024-01-15T11:30:13;11.30;99.90
34768;DHT22;21755;43.608;1.236;2024-01-15T11:32:40;11.20;99.90
34768;DHT22;21755;43.608;1.236;2024-01-15T11:35:09;11.30;99.90
34768;DHT22;21755;43.608;1.236;2024-01-15T11:40:21;11.30;99.90
34768;DHT22;21755;43.608;1.236;2024-01-15T11:42:48;11.20;99.90
34768;DHT22;21755;43.608;1.236;2024-01-15T11:45:21;11.20;99.90
34768;DHT22;21755;43.608;1.236;2024-01-15T11:48:15;11.20;99.90
34768;DHT22;21755;43.608;1.236;2024-01-15T11:50:45;11.20;99.90
34768;DHT22;21755;43.608;1.236;2024-01-15T11:55:58;11.20;99.90
34768;DHT22;21755;43.608;1.236;2024-01-15T11:58:25;11.20;99.90
34768;DHT22;21755;43.608;1.236;2024-01-15T12:00:52;11.20;99.90
34768;DHT22;21755;43.608;1.236;2024-01-15T12:03:23;11.30;99.90
34768;DHT22;21755;43.608;1.236;2024-01-15T12:05:51;11.30;99.90
34768;DHT22;21755;43.608;1.236;2024-01-15T12:08:22;11.40;99.90
34768;DHT22;21755;43.608;1.236;2024-01-15T12:10:48;11.40;99.90
34768;DHT22;21755;43.608;1.236;2024-01-15T12:13:15;11.40;99.90
34768;DHT22;21755;43.608;1.236;2024-01-15T12:15:42;11.40;99.90
34768;DHT22;21755;43.608;1.236;2024-01-15T12:18:12;11.50;99.90
34768;DHT22;21755;43.608;1.236;2024-01-15T12:20:40;11.50;99.90
34768;DHT22;21755;43.608;1.236;2024-01-15T12:23:06;11.40;99.90
34768;DHT22;21755;43.608;1.236;2024-01-15T12:25:33;11.40;99.90
34768;DHT22;21755;43.608;1.236;2024-01-15T12:28:00;11.30;99.90
34768;DHT22;21755;43.608;1.236;2024-01-15T12:30:27;11.30;99.90
34768;DHT22;21755;43.608;1.236;2024-01-15T12:32:53;11.30;99.90
34768;DHT22;21755;43.608;1.236;2024-01-15T12:35:19;11.30;99.90
34768;DHT22;21755;43.608;1.236;2024-01-15T12:37:45;11.40;99.90
34768;DHT22;21755;43.608;1.236;2024-01-15T12:40:12;11.40;99.90
34768;DHT22;21755;43.608;1.236;2024-01-15T12:42:40;11.40;99.90
34768;DHT22;21755;43.608;1.236;2024-01-15T12:45:06;11.40;99.90
34768;DHT22;21755;43.608;1.236;2024-01-15T12:47:32;11.40;99.90
34768;DHT22;21755;43.608;1.236;2024-01-15T12:49:58;11.40;99.90
34768;DHT22;21755;43.608;1.236;2024-01-15T12:52:28;11.40;99.90
34768;DHT22;21755;43.608;1.236;2024-01-15T12:54:55;11.40;99.90
34768;DHT22;21755;43.608;1.236;2024-01-15T12:57:21;11.50;99.90
34768;DHT22;21755;43.608;1.236;2024-01-15T12:59:48;11.50;99.90
34768;DHT22;21755;43.608;1.236;2024-01-15T13:02:15;11.50;99.90
34768;DHT22;21755;43.608;1.236;2024-01-15T13:04:42;11.50;99.90
34768;DHT22;21755;43.608;1.236;2024-01-15T13:07:08;11.50;99.90
34768;DHT22;21755;43.608;1.236;2024-01-15T13:09:35;11.50;99.90
34768;DHT22;21755;43.608;1.236;2024-01-15T13:12:04;11.50;99.90
34768;DHT22;21755;43.608;1.236;2024-01-15T13:14:31;11.50;99.90
34768;DHT22;21755;43.608;1.236;2024-01-15T13:16:58;11.50;99.90
34768;DHT22;21755;43.608;1.236;2024-01-15T13:19:24;11.50;99.90
34768;DHT22;21755;43.608;1.236;2024-01-15T13:21:50;11.40;99.90
34768;DHT22;21755;43.608;1.236;2024-01-15T13:24:17;11.40;99.90
34768;DHT22;21755;43.608;1.236;2024-01-15T13:26:43;11.50;99.90
34768;DHT22;21755;43.608;1.236;2024-01-15T13:29:09;11.40;99.90
34768;DHT22;21755;43.608;1.236;2024-01-15T13:31:35;11.50;99.90
34768;DHT22;21755;43.608;1.236;2024-01-15T13:34:01;11.50;99.90
34768;DHT22;21755;43.608;1.236;2024-01-15T13:36:27;11.60;99.90
34768;DHT22;21755;43.608;1.236;2024-01-15T13:38:53;11.60;99.90
34768;DHT22;21755;43.608;1.236;2024-01-15T13:41:22;11.60;99.90
34768;DHT22;21755;43.608;1.236;2024-01-15T13:43:55;11.60;99.90
34768;DHT22;21755;43.608;1.236;2024-01-15T13:46:25;11.60;99.90
34768;DHT22;21755;43.608;1.236;2024-01-15T13:48:55;11.60;99.90
34768;DHT22;21755;43.608;1.236;2024-01-15T13:51:24;11.50;99.90
34768;DHT22;21755;43.608;1.236;2024-01-15T13:53:50;11.50;99.90
34768;DHT22;21755;43.608;1.236;2024-01-15T13:56:16;11.50;99.90
34768;DHT22;21755;43.608;1.236;2024-01-15T13:58:42;11.50;99.90
34768;DHT22;21755;43.608;1.236;2024-01-15T14:01:09;11.50;99.90
34768;DHT22;21755;43.608;1.236;2024-01-15T14:03:35;11.50;99.90
34768;DHT22;21755;43.608;1.236;2024-01-15T14:06:01;11.50;99.90
34768;DHT22;21755;43.608;1.236;2024-01-15T14:08:37;11.40;99.90
34768;DHT22;21755;43.608;1.236;2024-01-15T14:11:04;11.40;99.90
34768;DHT22;21755;43.608;1.236;2024-01-15T14:13:32;11.40;99.90
34768;DHT22;21755;43.608;1.236;2024-01-15T14:15:58;11.40;99.90
34768;DHT22;21755;43.608;1.236;2024-01-15T14:18:24;11.40;99.90
34768;DHT22;21755;43.608;1.236;2024-01-15T14:20:50;11.40;99.90
34768;DHT22;21755;43.608;1.236;2024-01-15T14:23:16;11.40;99.90
34768;DHT22;21755;43.608;1.236;2024-01-15T14:25:41;11.40;99.90
34768;DHT22;21755;43.608;1.236;2024-01-15T14:28:07;11.40;99.90
34768;DHT22;21755;43.608;1.236;2024-01-15T14:30:33;11.40;99.90
34768;DHT22;21755;43.608;1.236;2024-01-15T14:32:59;11.40;99.90
34768;DHT22;21755;43.608;1.236;2024-01-15T14:35:25;11.40;99.90
34768;DHT22;21755;43.608;1.236;2024-01-15T14:37:51;11.40;99.90
34768;DHT22;21755;43.608;1.236;2024-01-15T14:40:17;11.40;99.90
34768;DHT22;21755;43.608;1.236;2024-01-15T14:42:44;11.40;99.90
34768;DHT22;21755;43.608;1.236;2024-01-15T14:45:10;11.40;99.90
34768;DHT22;21755;43.608;1.236;2024-01-15T14:47:39;11.30;99.90
34768;DHT22;21755;43.608;1.236;2024-01-15T14:50:09;11.30;99.90
34768;DHT22;21755;43.608;1.236;2024-01-15T14:52:38;11.30;99.90
34768;DHT22;21755;43.608;1.236;2024-01-15T14:55:05;11.40;99.90
34768;DHT22;21755;43.608;1.236;2024-01-15T14:57:31;11.40;99.90
34768;DHT22;21755;43.608;1.236;2024-01-15T14:59:59;11.40;99.90
34768;DHT22;21755;43.608;1.236;2024-01-15T15:02:26;11.40;99.90
34768;DHT22;21755;43.608;1.236;2024-01-15T15:04:54;11.40;99.90
34768;DHT22;21755;43.608;1.236;2024-01-15T15:07:23;11.40;99.90
34768;DHT22;21755;43.608;1.236;2024-01-15T15:09:49;11.40;99.90
34768;DHT22;21755;43.608;1.236;2024-01-15T15:12:16;11.40;99.90
34768;DHT22;21755;43.608;1.236;2024-01-15T15:14:42;11.50;99.90
34768;DHT22;21755;43.608;1.236;2024-01-15T15:17:09;11.50;99.90
34768;DHT22;21755;43.608;1.236;2024-01-15T15:19:38;11.50;99.90
34768;DHT22;21755;43.608;1.236;2024-01-15T15:22:06;11.50;99.90
34768;DHT22;21755;43.608;1.236;2024-01-15T15:24:37;11.50;99.90
34768;DHT22;21755;43.608;1.236;2024-01-15T15:27:04;11.50;99.90
34768;DHT22;21755;43.608;1.236;2024-01-15T15:29:31;11.40;99.90
34768;DHT22;21755;43.608;1.236;2024-01-15T15:31:57;11.50;99.90
34768;DHT22;21755;43.608;1.236;2024-01-15T15:34:23;11.50;99.90
34768;DHT22;21755;43.608;1.236;2024-01-15T15:36:49;11.40;99.90
34768;DHT22;21755;43.608;1.236;2024-01-15T15:39:15;11.40;99.90
34768;DHT22;21755;43.608;1.236;2024-01-15T15:41:44;11.40;99.90
34768;DHT22;21755;43.608;1.236;2024-01-15T15:44:10;11.40;99.90